createdAt,value
2022-10-01T06:38:34.287Z,13.82
2022-10-01T06:41:36.138Z,14.75
2022-10-01T06:44:37.830Z,9.88
2022-10-01T06:47:42.349Z,8.93
2022-10-01T06:50:45.582Z,4.70
2022-10-01T06:53:47.087Z,4.32
2022-10-01T06:56:48.662Z,4.22
2022-10-01T06:59:50.380Z,5.40
2022-10-01T07:02:52.067Z,8.65
2022-10-01T07:05:53.695Z,10.38
2022-10-01T07:08:55.469Z,15.95
2022-10-01T07:11:57.448Z,8.98
2022-10-01T07:14:58.969Z,11.02
2022-10-01T07:18:00.582Z,11.15
2022-10-01T07:21:02.080Z,13.23
2022-10-01T07:24:03.904Z,10.90
2022-10-01T07:27:07.545Z,11.88
2022-10-01T07:30:09.712Z,12.43
2022-10-01T07:33:11.225Z,17.05
2022-10-01T07:36:13.369Z,11.93
2022-10-01T07:39:14.848Z,12.38
2022-10-01T07:42:16.356Z,14.57
2022-10-01T07:45:17.801Z,11.75
2022-10-01T07:48:19.334Z,9.77
2022-10-01T07:51:21.009Z,17.52
2022-10-01T07:54:22.844Z,9.90
2022-10-01T07:57:24.272Z,12.48
2022-10-01T08:00:26.720Z,13.15
2022-10-01T08:03:31.075Z,8.88
2022-10-01T08:06:32.601Z,8.60
2022-10-01T08:09:34.665Z,9.38
2022-10-01T08:12:36.164Z,7.20
2022-10-01T08:15:37.663Z,6.88
2022-10-01T08:18:42.381Z,8.38
2022-10-01T08:21:43.884Z,9.52
2022-10-01T08:24:45.439Z,9.13
2022-10-01T08:27:48.277Z,7.20
2022-10-01T08:30:49.779Z,10.13
2022-10-01T08:33:52.083Z,9.35
2022-10-01T08:41:04.714Z,6.38
2022-10-01T08:44:07.503Z,10.93
2022-10-01T08:47:52.537Z,7.53
2022-10-01T08:51:04.881Z,19.50
2022-10-01T08:54:28.483Z,20.00
2022-10-01T08:57:34.899Z,19.02
2022-10-01T09:00:40.216Z,19.08
2022-10-01T09:03:49.212Z,22.48
2022-10-01T09:07:10.328Z,26.45
2022-10-01T09:10:32.791Z,21.52
2022-10-01T09:13:57.554Z,18.08
2022-10-01T09:17:19.234Z,20.67
2022-10-01T09:20:28.364Z,17.67
2022-10-01T09:23:32.045Z,16.60
2022-10-01T09:26:36.489Z,15.57
2022-10-01T09:30:01.559Z,12.80
2022-10-01T09:33:12.813Z,17.02
2022-10-01T09:36:30.390Z,16.00
2022-10-01T09:39:57.185Z,14.73
2022-10-01T09:43:01.574Z,14.00
2022-10-01T09:46:07.122Z,13.43
2022-10-01T09:49:20.067Z,10.82
2022-10-01T09:52:32.392Z,9.15
2022-10-01T09:55:40.999Z,13.63
2022-10-01T09:58:47.816Z,11.77
2022-10-01T10:02:01.059Z,8.25
2022-10-01T10:05:05.897Z,12.75
2022-10-01T10:08:20.083Z,8.63
2022-10-01T10:11:24.888Z,6.25
2022-10-01T10:14:36.207Z,10.38
2022-10-01T10:17:43.141Z,8.75
2022-10-01T10:20:45.537Z,7.57
2022-10-01T10:23:56.600Z,13.75
2022-10-01T10:27:00.353Z,25.67
2022-10-01T10:30:16.158Z,36.05
2022-10-01T10:33:20.781Z,40.97
2022-10-01T10:36:29.054Z,38.42
2022-10-01T10:39:40.625Z,43.90
2022-10-01T10:42:48.446Z,43.13
2022-10-01T10:45:56.398Z,41.25
2022-10-01T10:49:24.753Z,36.58
2022-10-01T10:52:36.400Z,40.60
2022-10-01T10:55:39.166Z,37.28
2022-10-01T10:58:42.519Z,36.17
2022-10-01T11:01:46.089Z,40.95
2022-10-01T11:04:47.712Z,35.88
2022-10-01T11:07:54.358Z,45.35
2022-10-01T11:11:25.369Z,50.15
2022-10-01T11:14:26.837Z,57.25
2022-10-01T11:17:43.469Z,55.47
2022-10-01T11:20:54.262Z,40.55
2022-10-01T11:24:21.086Z,48.55
2022-10-01T11:28:04.790Z,41.60
2022-10-01T11:31:28.047Z,40.15
2022-10-01T11:34:50.406Z,42.47
2022-10-01T11:38:10.622Z,30.58
2022-10-01T11:41:34.868Z,43.40
2022-10-01T11:45:02.994Z,31.98
2022-10-01T11:48:12.612Z,31.52
2022-10-01T11:51:19.443Z,31.52
2022-10-01T11:54:24.457Z,28.50
2022-10-01T11:57:45.431Z,26.80
2022-10-01T12:00:58.664Z,25.27
2022-10-01T12:04:17.312Z,21.73
2022-10-01T12:07:39.060Z,26.20
2022-10-01T12:10:47.094Z,29.40
2022-10-01T12:13:57.192Z,26.75
2022-10-01T12:17:09.145Z,24.13
2022-10-01T12:20:26.033Z,21.95
2022-10-01T12:23:32.103Z,16.10
2022-10-01T12:26:58.227Z,16.23
2022-10-01T12:30:09.051Z,15.52
2022-10-01T12:33:23.037Z,19.73
2022-10-01T12:36:40.718Z,11.00
2022-10-01T12:40:06.778Z,14.07
2022-10-01T12:43:29.507Z,11.75
2022-10-01T12:46:59.435Z,10.60
2022-10-01T12:50:12.911Z,11.98
2022-10-01T12:53:28.033Z,6.90
2022-10-01T12:56:38.161Z,7.57
2022-10-01T13:00:09.689Z,8.07
2022-10-01T13:03:11.132Z,8.48
2022-10-01T13:06:23.904Z,10.57
2022-10-01T13:09:51.356Z,12.75
2022-10-01T13:13:14.891Z,17.95
2022-10-01T13:17:07.381Z,21.95
2022-10-01T13:20:23.830Z,20.75
2022-10-01T13:23:39.335Z,15.93
2022-10-01T13:26:53.847Z,16.92
2022-10-01T13:30:21.262Z,20.25
2022-10-01T13:33:26.238Z,17.23
2022-10-01T13:36:30.483Z,21.20
2022-10-01T13:39:38.882Z,16.50
2022-10-01T13:43:26.806Z,17.80
2022-10-01T13:46:51.446Z,19.13
2022-10-01T13:49:56.560Z,17.13
2022-10-01T13:53:08.453Z,13.23
2022-10-01T13:56:14.328Z,11.77
2022-10-01T13:59:34.171Z,15.15
2022-10-01T14:02:39.431Z,14.50
2022-10-01T14:05:43.084Z,19.95
2022-10-01T14:09:13.997Z,16.42
2022-10-01T14:13:05.299Z,13.55
2022-10-01T14:16:07.539Z,12.95
2022-10-01T14:19:10.032Z,14.48
2022-10-01T14:22:30.944Z,13.80
2022-10-01T14:25:38.242Z,12.82
2022-10-01T14:29:14.793Z,11.38
2022-10-01T14:32:34.279Z,7.32
2022-10-01T14:35:47.805Z,9.88
2022-10-01T14:38:49.340Z,8.23
2022-10-01T14:41:54.052Z,9.45
2022-10-01T14:44:55.528Z,6.70
2022-10-01T14:48:04.440Z,7.95
2022-10-01T14:51:22.051Z,7.80
2022-10-01T14:54:24.272Z,9.02
2022-10-01T14:57:33.688Z,9.40
2022-10-01T15:00:35.467Z,8.52
2022-10-01T15:03:38.969Z,8.88
2022-10-01T15:06:43.633Z,6.55
2022-10-01T15:09:46.412Z,6.03
2022-10-01T15:12:51.749Z,8.55
2022-10-01T15:15:54.671Z,7.40
2022-10-01T15:19:07.572Z,6.72
2022-10-01T15:22:12.810Z,4.68
2022-10-01T15:25:24.293Z,7.85
2022-10-01T15:28:33.901Z,8.68
2022-10-01T15:31:36.522Z,13.85
2022-10-01T18:11:21.713Z,38.28
2022-10-01T18:14:23.920Z,27.27
2022-10-01T18:17:26.027Z,31.40
2022-10-01T18:20:28.040Z,33.58
2022-10-01T18:23:29.765Z,33.17
2022-10-01T18:26:31.612Z,34.60
2022-10-01T18:29:33.157Z,32.75
2022-10-01T18:32:48.192Z,29.40
2022-10-01T18:35:54.649Z,33.85
2022-10-01T18:39:07.323Z,25.92
2022-10-01T18:42:15.258Z,34.47
2022-10-01T18:45:27.162Z,32.35
2022-10-01T18:48:48.815Z,27.15
2022-10-01T18:52:18.750Z,29.25
2022-10-01T18:55:37.400Z,24.88
2022-10-01T18:59:14.731Z,24.73
2022-10-01T19:02:54.199Z,34.47
2022-10-01T19:06:14.036Z,29.92
2022-10-01T19:09:35.758Z,26.38
2022-10-01T19:12:52.128Z,29.15
2022-10-01T19:16:20.082Z,27.38
2022-10-01T19:19:33.516Z,30.65
2022-10-01T19:23:10.548Z,27.10
2022-10-01T19:26:21.153Z,29.38
2022-10-01T19:29:29.675Z,30.30
2022-10-01T19:32:55.199Z,37.60
2022-10-01T19:35:59.552Z,47.10
2022-10-01T19:39:06.409Z,41.75
2022-10-01T19:42:31.308Z,50.15
2022-10-01T19:45:49.170Z,41.60
2022-10-01T19:48:57.035Z,41.15
2022-10-01T19:52:02.317Z,44.50
2022-10-01T19:55:13.168Z,41.47
2022-10-01T19:58:20.571Z,36.15
2022-10-01T20:01:27.767Z,37.15
2022-10-01T20:05:01.599Z,38.08
2022-10-01T20:08:14.332Z,40.85
2022-10-01T20:11:20.426Z,40.00
2022-10-01T20:15:08.546Z,35.20
2022-10-01T20:18:30.290Z,40.47
2022-10-01T20:21:50.801Z,29.67
2022-10-01T20:25:00.194Z,32.42
2022-10-01T20:28:24.952Z,29.65
2022-10-01T20:31:26.639Z,27.90
2022-10-01T20:34:43.935Z,31.75
2022-10-01T20:37:45.380Z,27.13
2022-10-01T20:40:52.298Z,28.67
2022-10-01T20:43:58.499Z,29.85
2022-10-01T20:47:06.489Z,31.52
2022-10-01T20:50:18.616Z,25.90
2022-10-01T20:53:38.755Z,26.50
2022-10-01T20:56:56.431Z,28.23
2022-10-01T21:00:06.453Z,31.50
2022-10-01T21:03:32.069Z,36.47
2022-10-01T21:06:39.163Z,42.95
2022-10-01T21:09:49.917Z,43.70
2022-10-01T21:13:05.407Z,41.22
2022-10-01T21:16:28.276Z,34.22
2022-10-01T21:19:40.739Z,32.28
2022-10-01T21:23:13.631Z,27.90
2022-10-01T21:26:26.080Z,24.73
2022-10-01T21:29:50.192Z,27.38
2022-10-01T21:33:13.909Z,29.05
2022-10-01T21:36:30.129Z,25.93
2022-10-01T21:39:37.403Z,26.95
2022-10-01T21:42:57.826Z,26.60
2022-10-01T21:46:40.148Z,23.20
2022-10-01T21:50:14.053Z,24.17
2022-10-01T21:53:29.014Z,32.50
2022-10-01T21:56:37.280Z,24.40
2022-10-01T22:00:09.105Z,23.98
2022-10-01T22:03:36.282Z,23.13
2022-10-01T22:06:53.333Z,30.27
2022-10-01T22:10:19.541Z,21.10
2022-10-01T22:13:25.042Z,26.05
2022-10-01T22:16:32.539Z,31.13
2022-10-01T22:19:37.459Z,20.08
2022-10-01T22:22:39.065Z,23.27
2022-10-01T22:25:47.730Z,24.95
2022-10-01T22:28:54.952Z,23.60
2022-10-01T22:32:03.324Z,19.58
2022-10-01T22:35:12.372Z,20.70
2022-10-01T22:38:23.344Z,25.30
2022-10-01T22:41:46.691Z,20.45
2022-10-01T22:44:48.312Z,17.42
2022-10-01T22:48:10.685Z,19.83
2022-10-01T22:51:50.107Z,21.33
2022-10-01T22:55:00.746Z,20.77
2022-10-01T22:58:28.661Z,21.70
2022-10-01T23:01:48.797Z,20.75
2022-10-01T23:04:59.169Z,14.63
2022-10-01T23:08:26.795Z,19.70
2022-10-01T23:11:56.338Z,19.85
2022-10-01T23:15:25.306Z,22.55
2022-10-01T23:18:48.956Z,17.83
2022-10-01T23:22:14.117Z,14.65
2022-10-01T23:25:25.668Z,17.30
2022-10-01T23:28:50.649Z,16.25
2022-10-01T23:32:10.412Z,15.15
2022-10-01T23:35:13.379Z,13.70
2022-10-01T23:38:23.929Z,16.33
2022-10-01T23:41:38.333Z,16.30
2022-10-01T23:44:47.769Z,16.02
2022-10-01T23:48:19.036Z,16.25
2022-10-01T23:51:30.782Z,14.23
2022-10-01T23:54:57.212Z,18.52
2022-10-01T23:58:03.462Z,12.10
